Time;durP1;ratioP1;P1;durP2;ratioP2;P2;SDS_P1;SDS_P2;PMS_P1;PMS_P2;Temp;Humidity;BMP_temperature;BMP_pressure;BME280_temperature;BME280_humidity;BME280_pressure;Samples;Min_cycle;Max_cycle;Signal;HPM_P1;HPM_P2
2022/08/13 00:00:59;;;;;;;0.00;0.00;;;20.00;99.90;;;;;;4961425;28;20427;-70
2022/08/13 00:03:30;;;;;;;0.00;0.00;;;19.90;99.90;;;;;;4961224;28;20459;-70
2022/08/13 00:06:51;;;;;;;0.00;0.00;;;19.90;99.90;;;;;;4961479;28;20448;-70
2022/08/13 00:09:20;;;;;;;0.00;0.00;;;19.80;99.90;;;;;;4961365;28;20819;-70
2022/08/13 00:15:00;;;;;;;0.00;0.00;;;19.70;99.90;;;;;;4961356;28;20994;-72
2022/08/13 00:17:33;;;;;;;0.00;0.00;;;19.70;99.90;;;;;;4961565;28;20490;-73
2022/08/13 00:20:25;;;;;;;0.00;0.00;;;19.70;99.90;;;;;;4961056;28;20830;-73
2022/08/13 00:22:55;;;;;;;0.00;0.00;;;19.70;99.90;;;;;;4961212;28;20447;-75
2022/08/13 00:25:29;;;;;;;0.00;0.00;;;19.80;99.90;;;;;;4950956;28;21513;-73
2022/08/13 00:28:14;;;;;;;0.00;0.00;;;19.80;99.90;;;;;;4948409;28;20482;-73
2022/08/13 00:30:46;;;;;;;0.00;0.00;;;19.80;99.90;;;;;;4945560;28;20498;-71
2022/08/13 00:33:17;;;;;;;0.00;0.00;;;19.80;99.90;;;;;;4941324;29;20453;-72
2022/08/13 00:35:48;;;;;;;0.00;0.00;;;19.80;99.90;;;;;;4941259;29;20439;-71
2022/08/13 00:38:20;;;;;;;0.00;0.00;;;19.80;99.90;;;;;;4940667;28;20862;-72
2022/08/13 00:41:03;;;;;;;0.00;0.00;;;19.80;99.90;;;;;;4939998;28;21043;-72
2022/08/13 00:43:33;;;;;;;0.00;0.00;;;19.80;99.90;;;;;;4940497;29;20467;-73
2022/08/13 00:46:04;;;;;;;0.00;0.00;;;19.80;99.90;;;;;;4939908;29;20445;-72
2022/08/13 00:48:47;;;;;;;0.00;0.00;;;19.70;99.90;;;;;;4941368;28;20476;-73
2022/08/13 00:51:22;;;;;;;0.00;0.00;;;19.70;99.90;;;;;;4940505;28;20491;-73
2022/08/13 00:54:12;;;;;;;0.00;0.00;;;19.70;99.90;;;;;;4942234;29;20957;-74
2022/08/13 00:56:40;;;;;;;0.00;0.00;;;19.60;99.90;;;;;;4941433;28;20527;-74
2022/08/13 00:59:11;;;;;;;0.00;0.00;;;19.60;99.90;;;;;;4941314;28;20496;-71
2022/08/13 01:01:43;;;;;;;0.00;0.00;;;19.60;99.90;;;;;;4940631;28;20451;-74
2022/08/13 01:04:17;;;;;;;0.00;0.00;;;19.60;99.90;;;;;;4941291;29;20456;-73
2022/08/13 01:06:47;;;;;;;0.00;0.00;;;19.50;99.90;;;;;;4941111;29;20523;-74
2022/08/13 01:09:19;;;;;;;0.00;0.00;;;19.50;99.90;;;;;;4941254;28;21141;-74
2022/08/13 01:12:09;;;;;;;0.00;0.00;;;19.50;99.90;;;;;;4941094;29;20441;-74
2022/08/13 01:14:46;;;;;;;0.00;0.00;;;19.50;99.90;;;;;;4940810;29;20588;-73
2022/08/13 01:17:20;;;;;;;0.00;0.00;;;19.40;99.90;;;;;;4940844;29;20455;-72
2022/08/13 01:19:49;;;;;;;0.00;0.00;;;19.50;99.90;;;;;;4940613;28;20471;-74
2022/08/13 01:22:22;;;;;;;0.00;0.00;;;19.40;99.90;;;;;;4940813;29;20569;-73
2022/08/13 01:25:01;;;;;;;0.00;0.00;;;19.40;99.90;;;;;;4940487;29;20448;-74
2022/08/13 01:27:36;;;;;;;0.00;0.00;;;19.40;99.90;;;;;;4940520;28;20456;-74
2022/08/13 01:30:06;;;;;;;0.00;0.00;;;19.40;99.90;;;;;;4940684;29;20802;-72
2022/08/13 01:32:37;;;;;;;0.00;0.00;;;19.40;99.90;;;;;;4940595;29;20456;-74
2022/08/13 01:35:25;;;;;;;0.00;0.00;;;19.40;99.90;;;;;;4940798;29;20531;-74
2022/08/13 01:37:57;;;;;;;0.00;0.00;;;19.40;99.90;;;;;;4940290;28;20610;-73
2022/08/13 01:40:31;;;;;;;0.00;0.00;;;19.40;99.90;;;;;;4940638;29;20452;-74
2022/08/13 01:43:00;;;;;;;0.00;0.00;;;19.40;99.90;;;;;;4942486;28;20448;-74
2022/08/13 01:45:51;;;;;;;0.00;0.00;;;19.40;99.90;;;;;;4940758;28;20588;-74
2022/08/13 01:51:09;;;;;;;0.00;0.00;;;19.40;99.90;;;;;;4945796;28;20491;-77
2022/08/13 01:53:49;;;;;;;0.00;0.00;;;19.30;99.90;;;;;;4948296;28;20972;-76
2022/08/13 01:56:21;;;;;;;0.00;0.00;;;19.30;99.90;;;;;;4949138;28;20487;-76
2022/08/13 01:58:54;;;;;;;0.00;0.00;;;19.30;99.90;;;;;;4944219;28;21043;-74
2022/08/13 02:01:37;;;;;;;0.00;0.00;;;19.30;99.90;;;;;;4940266;29;20456;-71
2022/08/13 02:04:13;;;;;;;0.00;0.00;;;19.20;99.90;;;;;;4939557;29;20471;-74
2022/08/13 02:06:52;;;;;;;0.00;0.00;;;19.20;99.90;;;;;;4940367;28;20892;-73
2022/08/13 02:09:24;;;;;;;0.00;0.00;;;19.20;99.90;;;;;;4940020;28;20464;-75
2022/08/13 02:12:13;;;;;;;0.00;0.00;;;19.20;99.90;;;;;;4942202;29;20990;-76
2022/08/13 02:15:03;;;;;;;0.00;0.00;;;19.10;99.90;;;;;;4942682;29;20436;-77
2022/08/13 02:20:35;;;;;;;0.00;0.00;;;19.10;99.90;;;;;;5627322;23;20888;-91
2022/08/13 02:23:06;;;;;;;0.00;0.00;;;19.00;99.90;;;;;;4950065;28;20905;-93
2022/08/13 02:25:37;;;;;;;0.00;0.00;;;19.00;99.90;;;;;;4949172;29;20461;-93
2022/08/13 02:28:05;;;;;;;0.00;0.00;;;19.00;99.90;;;;;;4949408;28;20448;-93
2022/08/13 02:30:57;;;;;;;0.00;0.00;;;19.00;99.90;;;;;;4948420;28;20901;-91
2022/08/13 02:33:26;;;;;;;0.00;0.00;;;18.90;99.90;;;;;;4948453;28;21064;-93
2022/08/13 02:35:55;;;;;;;0.00;0.00;;;18.90;99.90;;;;;;4950301;28;20588;-90
2022/08/13 02:38:25;;;;;;;0.00;0.00;;;18.90;99.90;;;;;;4949424;28;20455;-89
2022/08/13 02:43:51;;;;;;;0.00;0.00;;;18.80;99.90;;;;;;4950755;28;20457;-92
2022/08/13 02:46:26;;;;;;;0.00;0.00;;;18.80;99.90;;;;;;4951124;28;20462;-93
2022/08/13 02:48:59;;;;;;;0.00;0.00;;;18.80;99.90;;;;;;4953981;28;20715;-93
2022/08/13 02:51:28;;;;;;;0.00;0.00;;;18.70;99.90;;;;;;4964524;28;20519;-94
2022/08/13 02:54:20;;;;;;;0.00;0.00;;;18.70;99.90;;;;;;4972037;28;21060;-92
2022/08/13 02:56:53;;;;;;;0.00;0.00;;;18.70;99.90;;;;;;4970549;28;20452;-93
2022/08/13 02:59:24;;;;;;;0.00;0.00;;;18.70;99.90;;;;;;4974984;28;20438;-92
2022/08/13 03:02:12;;;;;;;0.00;0.00;;;18.70;99.90;;;;;;4976207;28;20490;-93
2022/08/13 03:04:47;;;;;;;0.00;0.00;;;18.60;99.90;;;;;;4975011;28;20442;-93
2022/08/13 03:07:17;;;;;;;0.00;0.00;;;18.60;99.90;;;;;;4971904;28;20455;-91
2022/08/13 03:09:46;;;;;;;0.00;0.00;;;18.60;99.90;;;;;;4973668;28;20477;-92
2022/08/13 03:12:20;;;;;;;0.00;0.00;;;18.60;99.90;;;;;;4966876;28;20486;-92
2022/08/13 03:14:59;;;;;;;0.00;0.00;;;18.60;99.90;;;;;;4966723;28;20433;-91
2022/08/13 03:17:27;;;;;;;0.00;0.00;;;18.50;99.90;;;;;;4971209;28;20457;-94
2022/08/13 03:19:56;;;;;;;0.00;0.00;;;18.50;99.90;;;;;;4969366;28;20436;-92
2022/08/13 03:22:26;;;;;;;0.00;0.00;;;18.50;99.90;;;;;;4960375;28;20505;-91
2022/08/13 03:24:57;;;;;;;0.00;0.00;;;18.50;99.90;;;;;;4961534;28;20454;-91
2022/08/13 03:27:27;;;;;;;0.00;0.00;;;18.50;99.90;;;;;;4959014;28;20562;-92
2022/08/13 03:29:59;;;;;;;0.00;0.00;;;18.40;99.90;;;;;;4962577;28;20462;-93
2022/08/13 03:32:40;;;;;;;0.00;0.00;;;18.40;99.90;;;;;;4961498;28;20498;-91
2022/08/13 03:35:13;;;;;;;0.00;0.00;;;18.40;99.90;;;;;;4968286;28;20470;-94
2022/08/13 03:37:47;;;;;;;0.00;0.00;;;18.40;99.90;;;;;;4974053;28;20442;-93
2022/08/13 03:40:17;;;;;;;0.00;0.00;;;18.40;99.90;;;;;;4977927;28;20479;-93
2022/08/13 03:42:53;;;;;;;0.00;0.00;;;18.30;99.90;;;;;;4977986;28;20483;-92
2022/08/13 03:45:25;;;;;;;0.00;0.00;;;18.30;99.90;;;;;;4977741;28;20438;-94
2022/08/13 03:47:55;;;;;;;0.00;0.00;;;18.30;99.90;;;;;;4976753;28;20439;-92
2022/08/13 03:50:24;;;;;;;0.00;0.00;;;18.20;99.90;;;;;;4973799;28;21112;-92
2022/08/13 03:52:52;;;;;;;0.00;0.00;;;18.30;99.90;;;;;;4977672;28;20490;-91
2022/08/13 03:55:23;;;;;;;0.00;0.00;;;18.20;99.90;;;;;;4977445;28;20436;-91
2022/08/13 03:57:52;;;;;;;0.00;0.00;;;18.30;99.90;;;;;;4977531;28;20439;-92
2022/08/13 04:00:42;;;;;;;0.00;0.00;;;18.30;99.90;;;;;;4975431;28;20551;-90
2022/08/13 04:03:20;;;;;;;0.00;0.00;;;18.20;99.90;;;;;;4964693;28;20443;-91
2022/08/13 04:05:50;;;;;;;0.00;0.00;;;18.20;99.90;;;;;;4967267;28;20408;-91
2022/08/13 04:08:26;;;;;;;0.00;0.00;;;18.20;99.90;;;;;;4965351;28;20408;-89
2022/08/13 04:10:55;;;;;;;0.00;0.00;;;18.20;99.90;;;;;;4973885;28;20461;-91
2022/08/13 04:13:26;;;;;;;0.00;0.00;;;18.20;99.90;;;;;;4975675;28;20440;-92
2022/08/13 04:16:16;;;;;;;0.00;0.00;;;18.20;99.90;;;;;;4974430;28;20466;-89
2022/08/13 04:18:46;;;;;;;0.00;0.00;;;18.20;99.90;;;;;;4974365;28;20454;-91
2022/08/13 04:21:17;;;;;;;0.00;0.00;;;18.20;99.90;;;;;;4973016;28;20455;-90
2022/08/13 04:23:52;;;;;;;0.00;0.00;;;18.10;99.90;;;;;;4974237;28;20467;-90
2022/08/13 04:26:24;;;;;;;0.00;0.00;;;18.20;99.90;;;;;;4971438;28;20442;-91
2022/08/13 04:29:02;;;;;;;0.00;0.00;;;18.20;99.90;;;;;;4972741;28;20457;-91
2022/08/13 04:31:30;;;;;;;0.00;0.00;;;18.20;99.90;;;;;;4970781;28;20469;-91
2022/08/13 04:34:17;;;;;;;0.00;0.00;;;18.20;99.90;;;;;;4971520;28;20454;-89
2022/08/13 04:37:07;;;;;;;0.00;0.00;;;18.20;99.90;;;;;;4972951;28;20492;-91
2022/08/13 04:39:37;;;;;;;0.00;0.00;;;18.20;99.90;;;;;;4974241;28;20456;-91
2022/08/13 04:42:25;;;;;;;0.00;0.00;;;18.20;99.90;;;;;;4973054;28;20519;-92
2022/08/13 04:45:14;;;;;;;0.00;0.00;;;18.30;99.90;;;;;;4972152;28;20655;-91
2022/08/13 04:47:42;;;;;;;0.00;0.00;;;18.30;99.90;;;;;;4971921;28;20478;-90
2022/08/13 04:50:12;;;;;;;0.00;0.00;;;18.40;99.90;;;;;;4973165;28;20438;-90
2022/08/13 04:52:48;;;;;;;0.00;0.00;;;18.40;99.90;;;;;;4973078;28;20602;-90
2022/08/13 04:55:18;;;;;;;0.00;0.00;;;18.50;99.90;;;;;;4974549;28;20434;-89
2022/08/13 04:57:48;;;;;;;0.00;0.00;;;18.50;99.90;;;;;;4975820;28;20470;-90
2022/08/13 05:00:31;;;;;;;0.00;0.00;;;18.60;99.90;;;;;;4966549;28;20515;-91
2022/08/13 05:03:08;;;;;;;0.00;0.00;;;18.60;99.90;;;;;;4975372;28;20478;-90
2022/08/13 05:05:37;;;;;;;0.00;0.00;;;18.60;99.90;;;;;;4975293;28;20440;-89
2022/08/13 05:08:10;;;;;;;0.00;0.00;;;18.60;99.90;;;;;;4974802;28;20446;-89
2022/08/13 05:10:39;;;;;;;0.00;0.00;;;18.70;99.90;;;;;;4974952;28;20485;-91
2022/08/13 05:13:20;;;;;;;0.00;0.00;;;18.70;99.90;;;;;;4974090;28;20501;-89
2022/08/13 05:15:50;;;;;;;0.00;0.00;;;18.80;99.90;;;;;;4973655;28;20479;-88
2022/08/13 05:18:29;;;;;;;0.00;0.00;;;18.80;99.90;;;;;;4963230;28;20499;-90
2022/08/13 05:21:01;;;;;;;0.00;0.00;;;18.90;99.90;;;;;;4958726;28;20462;-89
2022/08/13 05:23:34;;;;;;;0.00;0.00;;;18.90;99.90;;;;;;4961878;28;20475;-90
2022/08/13 05:26:25;;;;;;;0.00;0.00;;;19.00;99.90;;;;;;4973191;28;20445;-90
2022/08/13 05:29:13;;;;;;;0.00;0.00;;;19.10;99.90;;;;;;4973037;28;20444;-91
2022/08/13 05:31:44;;;;;;;0.00;0.00;;;19.10;99.90;;;;;;4974011;28;20441;-92
2022/08/13 05:34:26;;;;;;;0.00;0.00;;;19.20;99.90;;;;;;4973700;28;20448;-90
2022/08/13 05:36:57;;;;;;;0.00;0.00;;;19.20;99.90;;;;;;4971645;28;20492;-89
2022/08/13 05:39:48;;;;;;;0.00;0.00;;;19.30;99.90;;;;;;4970293;28;20528;-88
2022/08/13 05:42:19;;;;;;;0.00;0.00;;;19.40;99.90;;;;;;4955627;28;21141;-90
2022/08/13 05:44:56;;;;;;;0.00;0.00;;;19.40;99.90;;;;;;4938336;29;20441;-90
2022/08/13 05:47:28;;;;;;;0.00;0.00;;;19.50;99.90;;;;;;4936319;29;20445;-89
2022/08/13 05:50:13;;;;;;;0.00;0.00;;;19.60;99.90;;;;;;4952787;28;20472;-91
2022/08/13 05:52:44;;;;;;;0.00;0.00;;;19.70;99.90;;;;;;4938492;29;20558;-90
2022/08/13 05:55:16;;;;;;;0.00;0.00;;;19.80;99.90;;;;;;4937509;29;20427;-89
2022/08/13 05:58:05;;;;;;;0.00;0.00;;;19.90;99.90;;;;;;4941353;29;20452;-90
2022/08/13 06:03:44;;;;;;;0.00;0.00;;;20.10;99.90;;;;;;4935587;29;20442;-90
2022/08/13 06:06:32;;;;;;;0.00;0.00;;;20.20;99.90;;;;;;4935322;29;20434;-91
2022/08/13 06:09:04;;;;;;;0.00;0.00;;;20.30;99.90;;;;;;4934546;29;20445;-88
2022/08/13 06:11:41;;;;;;;0.00;0.00;;;20.40;99.90;;;;;;4934872;29;20516;-90
2022/08/13 06:14:34;;;;;;;0.00;0.00;;;20.50;99.90;;;;;;4934685;28;20684;-91
2022/08/13 06:17:05;;;;;;;0.00;0.00;;;20.60;99.90;;;;;;4953633;29;20445;-91
2022/08/13 06:19:44;;;;;;;0.00;0.00;;;20.70;99.90;;;;;;4954079;29;20433;-90
2022/08/13 06:22:20;;;;;;;0.00;0.00;;;20.80;99.90;;;;;;4948912;28;20473;-89
2022/08/13 06:24:50;;;;;;;0.00;0.00;;;20.90;99.90;;;;;;4953505;29;20429;-90
2022/08/13 06:27:23;;;;;;;0.00;0.00;;;21.00;99.90;;;;;;4953227;28;20539;-90
2022/08/13 06:30:19;;;;;;;0.00;0.00;;;21.10;99.90;;;;;;4953197;28;20433;-91
2022/08/13 06:33:01;;;;;;;0.00;0.00;;;21.20;99.90;;;;;;4953035;28;20994;-92
2022/08/13 06:35:56;;;;;;;0.00;0.00;;;21.30;99.90;;;;;;4952371;28;20526;-90
2022/08/13 06:38:30;;;;;;;0.00;0.00;;;21.50;99.90;;;;;;4955050;28;20463;-92
2022/08/13 06:41:02;;;;;;;0.00;0.00;;;21.60;99.90;;;;;;4953526;28;20511;-91
2022/08/13 06:43:31;;;;;;;0.00;0.00;;;21.70;99.90;;;;;;4954505;29;20480;-92
2022/08/13 06:46:17;;;;;;;0.00;0.00;;;21.80;99.90;;;;;;4956553;28;20453;-93
2022/08/13 06:48:55;;;;;;;0.00;0.00;;;21.90;99.90;;;;;;4975799;28;20535;-92
2022/08/13 06:51:26;;;;;;;0.00;0.00;;;22.10;99.90;;;;;;4961867;28;20693;-92
2022/08/13 06:53:55;;;;;;;0.00;0.00;;;22.10;99.90;;;;;;4959442;28;20517;-91
2022/08/13 06:56:44;;;;;;;0.00;0.00;;;22.30;99.90;;;;;;4958173;28;20446;-92
2022/08/13 06:59:36;;;;;;;0.00;0.00;;;22.40;99.90;;;;;;4961380;28;20446;-91
2022/08/13 07:02:27;;;;;;;0.00;0.00;;;22.50;99.90;;;;;;4958699;28;20580;-91
2022/08/13 07:04:58;;;;;;;0.00;0.00;;;22.60;99.90;;;;;;4958576;28;20435;-90
2022/08/13 07:07:28;;;;;;;0.00;0.00;;;22.70;99.90;;;;;;4958260;28;20464;-91
2022/08/13 07:09:59;;;;;;;0.00;0.00;;;22.80;99.90;;;;;;4958106;28;20633;-91
2022/08/13 07:12:27;;;;;;;0.00;0.00;;;22.90;99.90;;;;;;4964779;28;20529;-89
2022/08/13 07:14:56;;;;;;;0.00;0.00;;;23.00;99.90;;;;;;4963924;28;20443;-91
2022/08/13 07:17:28;;;;;;;0.00;0.00;;;23.20;99.90;;;;;;4962841;28;20514;-91
2022/08/13 07:20:02;;;;;;;0.00;0.00;;;23.20;99.90;;;;;;4963672;28;20451;-90
2022/08/13 07:22:37;;;;;;;0.00;0.00;;;23.30;99.90;;;;;;4960575;28;20490;-89
2022/08/13 07:25:30;;;;;;;0.00;0.00;;;23.40;99.90;;;;;;4960492;28;20598;-93
2022/08/13 07:28:19;;;;;;;0.00;0.00;;;23.60;99.90;;;;;;4960211;28;20472;-90
2022/08/13 07:31:10;;;;;;;0.00;0.00;;;23.60;99.90;;;;;;4959334;28;20493;-91
2022/08/13 07:33:48;;;;;;;0.00;0.00;;;23.70;99.90;;;;;;4959230;29;20551;-90
2022/08/13 07:36:29;;;;;;;0.00;0.00;;;23.80;99.90;;;;;;4959469;28;20477;-91
2022/08/13 07:39:03;;;;;;;0.00;0.00;;;23.90;99.90;;;;;;4958790;29;20425;-90
2022/08/13 07:41:40;;;;;;;0.00;0.00;;;24.10;99.90;;;;;;4958660;28;20970;-91
2022/08/13 07:44:28;;;;;;;0.00;0.00;;;24.20;99.90;;;;;;4958862;28;20524;-89
2022/08/13 07:47:12;;;;;;;0.00;0.00;;;24.30;99.90;;;;;;4974662;28;20442;-91
2022/08/13 07:49:53;;;;;;;0.00;0.00;;;24.40;99.90;;;;;;4960064;28;21195;-90
2022/08/13 07:52:27;;;;;;;0.00;0.00;;;24.50;99.90;;;;;;4959676;28;20543;-90
2022/08/13 07:55:01;;;;;;;0.00;0.00;;;24.60;99.90;;;;;;4957099;28;20525;-92
2022/08/13 07:57:31;;;;;;;0.00;0.00;;;24.70;99.90;;;;;;4958442;28;20446;-90
2022/08/13 08:00:13;;;;;;;0.00;0.00;;;24.80;99.90;;;;;;4958241;28;20531;-91
2022/08/13 08:02:55;;;;;;;0.00;0.00;;;24.80;99.90;;;;;;4959468;28;20466;-92
2022/08/13 08:05:25;;;;;;;0.00;0.00;;;25.00;99.90;;;;;;4959073;28;20443;-91
2022/08/13 08:08:06;;;;;;;0.00;0.00;;;25.00;99.90;;;;;;4958590;28;20554;-92
2022/08/13 08:10:40;;;;;;;0.00;0.00;;;25.10;99.90;;;;;;4965989;28;20467;-90
2022/08/13 08:13:09;;;;;;;0.00;0.00;;;25.20;99.90;;;;;;4966820;28;20483;-92
2022/08/13 08:15:41;;;;;;;0.00;0.00;;;25.30;99.90;;;;;;4966727;28;20784;-90
2022/08/13 08:18:30;;;;;;;0.00;0.00;;;25.40;99.90;;;;;;4962495;28;20924;-86
2022/08/13 08:21:23;;;;;;;0.00;0.00;;;25.50;99.90;;;;;;4966097;28;20483;-91
2022/08/13 08:24:13;;;;;;;0.00;0.00;;;25.70;99.90;;;;;;4971436;28;20622;-91
2022/08/13 08:26:59;;;;;;;0.00;0.00;;;25.80;99.90;;;;;;4959308;28;20515;-90
2022/08/13 08:29:32;;;;;;;0.00;0.00;;;25.90;99.90;;;;;;4957796;28;20606;-90
2022/08/13 08:32:25;;;;;;;0.00;0.00;;;26.10;99.90;;;;;;4957751;28;20488;-90
2022/08/13 08:35:14;;;;;;;0.00;0.00;;;26.20;99.90;;;;;;4963382;29;20804;-90
2022/08/13 08:43:48;;;;;;;0.00;0.00;;;26.60;99.90;;;;;;4958304;29;20460;-85
2022/08/13 08:46:17;;;;;;;0.00;0.00;;;26.80;99.90;;;;;;4973982;28;20508;-89
2022/08/13 08:48:45;;;;;;;0.00;0.00;;;27.00;99.90;;;;;;4963406;28;20427;-90
2022/08/13 08:51:25;;;;;;;0.00;0.00;;;27.10;99.90;;;;;;4961538;29;20457;-88
2022/08/13 08:53:55;;;;;;;0.00;0.00;;;27.30;99.90;;;;;;4962657;29;20485;-87
2022/08/13 08:56:43;;;;;;;0.00;0.00;;;27.40;99.90;;;;;;4972438;28;20452;-89
2022/08/13 08:59:28;;;;;;;0.00;0.00;;;27.60;99.60;;;;;;4970350;28;20448;-88
2022/08/13 09:02:00;;;;;;;0.00;0.00;;;27.70;99.60;;;;;;4964710;28;20494;-89
2022/08/13 09:04:30;;;;;;;0.00;0.00;;;27.80;99.50;;;;;;4954463;29;20558;-88
2022/08/13 09:07:21;;;;;;;0.00;0.00;;;27.90;98.90;;;;;;4946580;29;20442;-89
2022/08/13 09:09:52;;;;;;;0.00;0.00;;;28.00;98.10;;;;;;4952115;28;20452;-88
2022/08/13 09:12:42;;;;;;;0.00;0.00;;;28.00;98.20;;;;;;4952223;28;20707;-88
2022/08/13 09:15:14;;;;;;;0.00;0.00;;;28.10;98.60;;;;;;4954935;28;20495;-89
2022/08/13 09:17:47;;;;;;;0.00;0.00;;;28.20;98.80;;;;;;4956239;29;20951;-92
2022/08/13 09:20:20;;;;;;;0.00;0.00;;;28.30;98.60;;;;;;4958071;29;20447;-90
2022/08/13 09:23:03;;;;;;;0.00;0.00;;;28.30;97.80;;;;;;4957024;28;20486;-89
2022/08/13 09:25:55;;;;;;;0.00;0.00;;;28.40;97.60;;;;;;4956277;28;21086;-91
2022/08/13 09:28:38;;;;;;;0.00;0.00;;;28.30;97.40;;;;;;4962999;28;20442;-92
2022/08/13 09:31:16;;;;;;;0.00;0.00;;;28.40;97.50;;;;;;4963305;28;20514;-89
2022/08/13 09:33:58;;;;;;;0.00;0.00;;;28.50;97.30;;;;;;4965335;28;20573;-90
2022/08/13 09:36:38;;;;;;;0.00;0.00;;;28.40;97.30;;;;;;4956586;28;20450;-89
2022/08/13 09:39:28;;;;;;;0.00;0.00;;;28.50;96.70;;;;;;4953637;28;20473;-89
2022/08/13 09:42:14;;;;;;;0.00;0.00;;;28.60;96.90;;;;;;4966258;23;20502;-69
2022/08/13 09:44:54;;;;;;;0.00;0.00;;;28.70;96.80;;;;;;4959345;28;20450;-69
2022/08/13 09:47:23;;;;;;;0.00;0.00;;;28.80;96.90;;;;;;4958160;28;20530;-69
2022/08/13 09:50:11;;;;;;;0.00;0.00;;;28.80;96.50;;;;;;4939279;28;20463;-69
2022/08/13 09:52:39;;;;;;;0.00;0.00;;;28.80;96.30;;;;;;4936258;28;20479;-70
2022/08/13 09:55:07;;;;;;;0.00;0.00;;;28.90;95.80;;;;;;4933467;28;20499;-70
2022/08/13 09:57:48;;;;;;;0.00;0.00;;;28.90;96.00;;;;;;4923046;29;20805;-70
2022/08/13 10:00:22;;;;;;;0.00;0.00;;;28.80;95.70;;;;;;4921150;28;20564;-69
2022/08/13 10:02:59;;;;;;;0.00;0.00;;;28.80;95.80;;;;;;4928389;29;20453;-69
2022/08/13 10:05:32;;;;;;;0.00;0.00;;;28.90;95.80;;;;;;4935995;28;20455;-70
2022/08/13 10:08:06;;;;;;;0.00;0.00;;;29.10;95.90;;;;;;4939272;28;20483;-70
2022/08/13 10:10:35;;;;;;;0.00;0.00;;;29.20;96.30;;;;;;4937579;28;20960;-70
2022/08/13 10:13:03;;;;;;;0.00;0.00;;;29.20;95.80;;;;;;4940051;28;20456;-70
2022/08/13 10:15:34;;;;;;;0.00;0.00;;;29.30;96.00;;;;;;4940033;28;20491;-67
2022/08/13 10:18:05;;;;;;;0.00;0.00;;;29.30;95.20;;;;;;4924568;28;20500;-68
2022/08/13 10:20:40;;;;;;;0.00;0.00;;;29.40;95.50;;;;;;4923691;29;20456;-70
2022/08/13 10:23:10;;;;;;;0.00;0.00;;;29.40;95.50;;;;;;4928085;28;20567;-71
2022/08/13 10:25:38;;;;;;;0.00;0.00;;;29.40;95.50;;;;;;4929672;29;20482;-70
2022/08/13 10:28:21;;;;;;;0.00;0.00;;;29.50;95.80;;;;;;4932691;28;20499;-70
2022/08/13 10:30:58;;;;;;;0.00;0.00;;;29.50;95.60;;;;;;4936839;29;20452;-70
2022/08/13 10:33:52;;;;;;;0.00;0.00;;;29.60;95.60;;;;;;4933479;28;21066;-71
2022/08/13 10:36:20;;;;;;;0.00;0.00;;;29.70;95.20;;;;;;4939278;28;20555;-69
2022/08/13 10:38:48;;;;;;;0.00;0.00;;;29.80;95.40;;;;;;4940008;28;20789;-69
2022/08/13 10:41:21;;;;;;;0.00;0.00;;;29.90;95.50;;;;;;4928326;28;20847;-69
2022/08/13 10:43:49;;;;;;;0.00;0.00;;;30.00;95.00;;;;;;4926577;29;20849;-69
2022/08/13 10:46:25;;;;;;;0.00;0.00;;;30.00;95.10;;;;;;4937769;28;20467;-69
2022/08/13 10:48:57;;;;;;;0.00;0.00;;;30.00;95.30;;;;;;4938834;28;20498;-69
2022/08/13 10:51:26;;;;;;;0.00;0.00;;;30.10;95.10;;;;;;4942662;28;20681;-70
2022/08/13 10:53:58;;;;;;;0.00;0.00;;;30.10;95.00;;;;;;4943125;28;20924;-70
2022/08/13 10:56:30;;;;;;;0.00;0.00;;;30.10;94.80;;;;;;4933776;29;20508;-69
2022/08/13 10:58:59;;;;;;;0.00;0.00;;;30.20;94.90;;;;;;4931746;29;20484;-69
2022/08/13 11:01:29;;;;;;;0.00;0.00;;;30.20;94.80;;;;;;4943257;28;20450;-69
2022/08/13 11:04:01;;;;;;;0.00;0.00;;;30.30;95.10;;;;;;4934491;28;21031;-69
2022/08/13 11:06:34;;;;;;;0.00;0.00;;;30.40;95.20;;;;;;4926177;29;20440;-70
2022/08/13 11:09:05;;;;;;;0.00;0.00;;;30.40;94.70;;;;;;4944486;28;20479;-69
2022/08/13 11:11:55;;;;;;;0.00;0.00;;;30.50;94.80;;;;;;4946946;28;20463;-69
2022/08/13 11:14:27;;;;;;;0.00;0.00;;;30.70;94.60;;;;;;4932051;28;20683;-69
2022/08/13 11:17:07;;;;;;;0.00;0.00;;;30.80;94.70;;;;;;4929617;29;20642;-69
2022/08/13 11:19:56;;;;;;;0.00;0.00;;;30.90;94.80;;;;;;4931408;29;20451;-70
2022/08/13 11:22:31;;;;;;;0.00;0.00;;;31.00;94.70;;;;;;4934258;28;20541;-69
2022/08/13 11:25:03;;;;;;;0.00;0.00;;;31.10;94.80;;;;;;4942846;28;20460;-69
2022/08/13 11:27:51;;;;;;;0.00;0.00;;;31.10;94.90;;;;;;4932616;28;20456;-69
2022/08/13 11:30:21;;;;;;;0.00;0.00;;;31.20;94.70;;;;;;4933333;28;21024;-69
2022/08/13 11:33:03;;;;;;;0.00;0.00;;;31.30;94.40;;;;;;4932133;28;20668;-68
2022/08/13 11:35:34;;;;;;;0.00;0.00;;;31.40;94.40;;;;;;4923109;28;21048;-69
2022/08/13 11:38:08;;;;;;;0.00;0.00;;;31.40;94.20;;;;;;4929280;29;20911;-71
2022/08/13 11:40:37;;;;;;;0.00;0.00;;;31.40;94.20;;;;;;4939483;28;20448;-71
2022/08/13 11:43:06;;;;;;;0.00;0.00;;;31.50;94.00;;;;;;4951005;28;20448;-69
2022/08/13 11:45:45;;;;;;;0.00;0.00;;;31.40;94.00;;;;;;4952146;28;20834;-73
2022/08/13 11:48:16;;;;;;;0.00;0.00;;;31.40;94.30;;;;;;4954702;28;21000;-72
2022/08/13 11:50:58;;;;;;;0.00;0.00;;;31.30;94.00;;;;;;4946526;28;20955;-71
2022/08/13 11:53:27;;;;;;;0.00;0.00;;;31.20;94.30;;;;;;4951968;28;20459;-71
2022/08/13 11:55:57;;;;;;;0.00;0.00;;;31.20;94.40;;;;;;4952871;28;20479;-72
2022/08/13 11:58:33;;;;;;;0.00;0.00;;;31.20;94.00;;;;;;4939536;28;20480;-72
2022/08/13 12:01:22;;;;;;;0.00;0.00;;;31.10;94.20;;;;;;4951037;28;20452;-71
2022/08/13 12:03:53;;;;;;;0.00;0.00;;;31.10;94.40;;;;;;4947185;28;20933;-72
2022/08/13 12:06:43;;;;;;;0.00;0.00;;;31.10;94.30;;;;;;4943231;28;20963;-71
2022/08/13 12:09:21;;;;;;;0.00;0.00;;;31.20;94.50;;;;;;4949656;28;20764;-71
2022/08/13 12:12:09;;;;;;;0.00;0.00;;;31.40;94.50;;;;;;4936592;28;21123;-72
2022/08/13 12:14:50;;;;;;;0.00;0.00;;;31.50;94.40;;;;;;4940367;28;20916;-70
2022/08/13 12:17:19;;;;;;;0.00;0.00;;;31.70;94.10;;;;;;4932215;28;20545;-72
2022/08/13 12:20:10;;;;;;;0.00;0.00;;;31.80;94.20;;;;;;4933648;28;20464;-70
2022/08/13 12:22:49;;;;;;;0.00;0.00;;;31.90;94.10;;;;;;4933180;29;20531;-70
2022/08/13 12:25:19;;;;;;;0.00;0.00;;;31.80;94.10;;;;;;4941545;28;20440;-70
2022/08/13 12:28:12;;;;;;;0.00;0.00;;;31.90;94.00;;;;;;4922940;29;20454;-71
2022/08/13 12:30:50;;;;;;;0.00;0.00;;;31.90;93.80;;;;;;4922680;29;20453;-71
2022/08/13 12:33:18;;;;;;;0.00;0.00;;;32.00;94.00;;;;;;4922720;29;20446;-71
2022/08/13 12:35:51;;;;;;;0.00;0.00;;;31.90;94.00;;;;;;4922430;29;20789;-71
2022/08/13 12:38:27;;;;;;;0.00;0.00;;;31.90;93.90;;;;;;4941295;28;20532;-70
2022/08/13 12:41:01;;;;;;;0.00;0.00;;;31.90;93.90;;;;;;4941592;28;20444;-71
2022/08/13 12:43:46;;;;;;;0.00;0.00;;;31.70;93.90;;;;;;4941273;28;20456;-71
2022/08/13 12:46:34;;;;;;;0.00;0.00;;;31.60;94.00;;;;;;4939624;28;20670;-74
2022/08/13 12:49:03;;;;;;;0.00;0.00;;;31.40;94.30;;;;;;4931725;28;20484;-73
2022/08/13 12:51:41;;;;;;;0.00;0.00;;;31.30;94.50;;;;;;4922965;29;20543;-70
2022/08/13 12:54:25;;;;;;;0.00;0.00;;;31.10;94.50;;;;;;4933286;28;20944;-70
2022/08/13 12:57:14;;;;;;;0.00;0.00;;;31.10;94.60;;;;;;4922459;29;20481;-70
2022/08/13 13:00:03;;;;;;;0.00;0.00;;;31.00;94.50;;;;;;4939638;28;20638;-71
2022/08/13 13:02:33;;;;;;;0.00;0.00;;;31.00;94.60;;;;;;4929329;28;20457;-71
2022/08/13 13:05:01;;;;;;;0.00;0.00;;;31.00;94.50;;;;;;4936285;29;20757;-71
2022/08/13 13:07:43;;;;;;;0.00;0.00;;;31.00;94.60;;;;;;4935932;28;20563;-70
2022/08/13 13:10:35;;;;;;;0.00;0.00;;;31.00;94.70;;;;;;4929346;28;20743;-70
2022/08/13 13:13:05;;;;;;;0.00;0.00;;;31.10;94.80;;;;;;4945012;28;20459;-71
2022/08/13 13:15:53;;;;;;;0.00;0.00;;;31.20;94.60;;;;;;4946990;28;20736;-69
2022/08/13 13:18:42;;;;;;;0.00;0.00;;;31.20;94.90;;;;;;4950656;28;20471;-68
2022/08/13 13:21:22;;;;;;;0.00;0.00;;;31.30;94.90;;;;;;4950706;28;20432;-67
2022/08/13 13:24:00;;;;;;;0.00;0.00;;;31.40;94.70;;;;;;4948196;28;20951;-69
2022/08/13 13:26:34;;;;;;;0.00;0.00;;;31.40;94.50;;;;;;4949812;28;20502;-69
2022/08/13 13:29:06;;;;;;;0.00;0.00;;;31.50;94.60;;;;;;4945720;28;20468;-70
2022/08/13 13:31:33;;;;;;;0.00;0.00;;;31.60;94.20;;;;;;4944795;28;20445;-69
2022/08/13 13:34:23;;;;;;;0.00;0.00;;;31.60;94.60;;;;;;4946283;28;20980;-67
2022/08/13 13:36:52;;;;;;;0.00;0.00;;;31.80;94.60;;;;;;4950198;28;20640;-70
2022/08/13 13:39:22;;;;;;;0.00;0.00;;;31.70;94.40;;;;;;4946193;28;20544;-69
2022/08/13 13:41:51;;;;;;;0.00;0.00;;;31.80;94.50;;;;;;4949057;28;20503;-69
2022/08/13 13:44:22;;;;;;;0.00;0.00;;;31.70;94.50;;;;;;4948523;28;20463;-70
2022/08/13 13:47:09;;;;;;;0.00;0.00;;;31.60;94.70;;;;;;4947341;28;20447;-69
2022/08/13 13:49:37;;;;;;;0.00;0.00;;;31.50;94.70;;;;;;4952114;28;20550;-69
2022/08/13 13:52:08;;;;;;;0.00;0.00;;;31.50;94.60;;;;;;4949970;28;20773;-69
2022/08/13 13:54:37;;;;;;;0.00;0.00;;;31.40;94.60;;;;;;4948219;28;20492;-69
2022/08/13 13:57:07;;;;;;;0.00;0.00;;;31.30;94.50;;;;;;4939457;28;20840;-69